Kt Birdie — 3FUJ7 — position and weather

sailwx.info

Track history (hours):
 
Tides and Currents Weather Stations Pressure Air Temp Water Temp Dewpoint Dewpoint Depression Visibility Wind Speed Wind Dir Waves Ship Positions

Kt Birdie

Last reported at 2016-Jun-28 00:33 UTC. Time now 2016-Jun-29 16:28 UTC.
Position N 61°56' W 004°17'.

Length 225 m; draft 7.3 m.

Type: Cargo ship. MMSI: 354803000.

Date/timePositionNaut miles runAvg speedWind from/ knotsBaromVisibWave heightAir tempDewpointWater temp
2016-Jun-28 00:33N 61°56' W 004°17'1414.5
2016-Jun-27 23:33N 61°44' W 004°32'1614.9
2016-Jun-27 22:27N 61°30' W 004°50'1314.8
2016-Jun-27 21:34N 61°18' W 005°04'1413.9
2016-Jun-27 20:33N 61°07' W 005°19'1413.6
2016-Jun-27 19:33N 60°55' W 005°33'31612.7
2016-Jun-26 18:33N 55°42' W 007°02'1616.1
2016-Jun-26 17:33N 55°34' W 006°38'1616.0
2016-Jun-26 16:33N 55°26' W 006°13'1414.3
2016-Jun-26 15:34N 55°17' W 005°53'1614.6
2016-Jun-26 14:29N 55°04' W 005°38'1313.9
2016-Jun-26 13:33N 54°53' W 005°26'1313.3
2016-Jun-26 12:34N 54°42' W 005°13'1414.0
2016-Jun-26 11:33N 54°29' W 005°10'1514.6
2016-Jun-26 10:33N 54°14' W 005°10'1515.1
2016-Jun-26 09:33N 53°59' W 005°09'9413.5
2016-Jun-26 02:33N 52°26' W 005°33'1515.5
2016-Jun-26 01:33N 52°11' W 005°39'6615.7
2016-Jun-25 21:19N 51°05' W 005°52'1114.9
2016-Jun-25 20:33N 50°53' W 005°53'1514.8
2016-Jun-25 19:32N 50°38' W 005°53'1515.0
2016-Jun-25 18:31N 50°23' W 005°53'1615.5
2016-Jun-25 17:31N 50°07' W 005°53'1611.6
2016-Jun-25 16:10N 50°00' W 005°31'6 7.6
2016-Jun-25 15:20N 50°01' W 005°21'0 0.0
2016-Jun-25 08:20N 50°01' W 005°21'0 0.0
2016-Jun-25 04:20N 50°01' W 005°21'1 1.7
2016-Jun-25 03:33N 49°60' W 005°21'37712.1
2016-Jun-23 20:29N 44°01' W 008°11'  
Track history (hours):
 
Tides and Currents Weather Stations Pressure Air Temp Water Temp Dewpoint Dewpoint Depression Visibility Wind Speed Wind Dir Waves Ship Positions

Kt Birdie

Last reported at 2016-Jun-28 00:33 UTC. Time now 2016-Jun-29 16:28 UTC.
Position N 61°56' W 004°17'.

Length 225 m; draft 7.3 m.

Type: Cargo ship. MMSI: 354803000.

Date/timePositionNaut miles runAvg speedWind from/ knotsBaromVisibWave heightAir tempDewpointWater temp
2016-Jun-28 00:33N 61°56' W 004°17'1414.5
2016-Jun-27 23:33N 61°44' W 004°32'1614.9
2016-Jun-27 22:27N 61°30' W 004°50'1314.8
2016-Jun-27 21:34N 61°18' W 005°04'1413.9
2016-Jun-27 20:33N 61°07' W 005°19'1413.6
2016-Jun-27 19:33N 60°55' W 005°33'31612.7
2016-Jun-26 18:33N 55°42' W 007°02'1616.1
2016-Jun-26 17:33N 55°34' W 006°38'1616.0
2016-Jun-26 16:33N 55°26' W 006°13'1414.3
2016-Jun-26 15:34N 55°17' W 005°53'1614.6
2016-Jun-26 14:29N 55°04' W 005°38'1313.9
2016-Jun-26 13:33N 54°53' W 005°26'1313.3
2016-Jun-26 12:34N 54°42' W 005°13'1414.0
2016-Jun-26 11:33N 54°29' W 005°10'1514.6
2016-Jun-26 10:33N 54°14' W 005°10'1515.1
2016-Jun-26 09:33N 53°59' W 005°09'9413.5
2016-Jun-26 02:33N 52°26' W 005°33'1515.5
2016-Jun-26 01:33N 52°11' W 005°39'6615.7
2016-Jun-25 21:19N 51°05' W 005°52'1114.9
2016-Jun-25 20:33N 50°53' W 005°53'1514.8
2016-Jun-25 19:32N 50°38' W 005°53'1515.0
2016-Jun-25 18:31N 50°23' W 005°53'1615.5
2016-Jun-25 17:31N 50°07' W 005°53'1611.6
2016-Jun-25 16:10N 50°00' W 005°31'6 7.6
2016-Jun-25 15:20N 50°01' W 005°21'0 0.0
2016-Jun-25 08:20N 50°01' W 005°21'0 0.0
2016-Jun-25 04:20N 50°01' W 005°21'1 1.7
2016-Jun-25 03:33N 49°60' W 005°21'37712.1
2016-Jun-23 20:29N 44°01' W 008°11'  

Dump ship's entire track history